sensor_id;sensor_type;location;lat;lon;timestamp;P1;durP1;ratioP1;P2;durP2;ratioP2
66946;SDS011;53853;51.982;5.928;2023-06-05T00:01:11;6.07;;;2.85;;
66946;SDS011;53853;51.982;5.928;2023-06-05T00:03:41;6.05;;;3.92;;
66946;SDS011;53853;51.982;5.928;2023-06-05T00:06:11;8.85;;;4.85;;
66946;SDS011;53853;51.982;5.928;2023-06-05T00:08:43;4.65;;;3.00;;
66946;SDS011;53853;51.982;5.928;2023-06-05T00:11:13;4.90;;;3.35;;
66946;SDS011;53853;51.982;5.928;2023-06-05T00:13:43;4.38;;;3.05;;
66946;SDS011;53853;51.982;5.928;2023-06-05T00:16:13;4.10;;;3.05;;
66946;SDS011;53853;51.982;5.928;2023-06-05T00:18:43;5.55;;;3.40;;
66946;SDS011;53853;51.982;5.928;2023-06-05T00:21:14;7.22;;;4.57;;
66946;SDS011;53853;51.982;5.928;2023-06-05T00:23:48;4.93;;;3.45;;
66946;SDS011;53853;51.982;5.928;2023-06-05T00:26:18;4.43;;;3.15;;
66946;SDS011;53853;51.982;5.928;2023-06-05T00:28:49;5.50;;;3.25;;
66946;SDS011;53853;51.982;5.928;2023-06-05T00:31:19;6.68;;;4.60;;
66946;SDS011;53853;51.982;5.928;2023-06-05T00:33:50;7.85;;;4.22;;
66946;SDS011;53853;51.982;5.928;2023-06-05T00:36:19;5.93;;;4.00;;
66946;SDS011;53853;51.982;5.928;2023-06-05T00:38:52;5.63;;;3.00;;
66946;SDS011;53853;51.982;5.928;2023-06-05T00:41:22;5.88;;;4.82;;
66946;SDS011;53853;51.982;5.928;2023-06-05T00:43:52;7.47;;;5.57;;
66946;SDS011;53853;51.982;5.928;2023-06-05T00:46:22;7.97;;;4.00;;
66946;SDS011;53853;51.982;5.928;2023-06-05T00:48:52;6.82;;;4.18;;
66946;SDS011;53853;51.982;5.928;2023-06-05T00:51:22;8.25;;;4.18;;
66946;SDS011;53853;51.982;5.928;2023-06-05T00:53:55;5.35;;;4.60;;
66946;SDS011;53853;51.982;5.928;2023-06-05T00:56:25;4.78;;;3.75;;
66946;SDS011;53853;51.982;5.928;2023-06-05T00:58:56;4.88;;;3.55;;
66946;SDS011;53853;51.982;5.928;2023-06-05T01:01:26;7.30;;;5.40;;
66946;SDS011;53853;51.982;5.928;2023-06-05T01:03:58;5.38;;;4.18;;
66946;SDS011;53853;51.982;5.928;2023-06-05T01:06:28;6.90;;;3.60;;
66946;SDS011;53853;51.982;5.928;2023-06-05T01:09:03;4.68;;;2.90;;
66946;SDS011;53853;51.982;5.928;2023-06-05T01:11:36;5.82;;;3.60;;
66946;SDS011;53853;51.982;5.928;2023-06-05T01:14:14;8.57;;;5.03;;
66946;SDS011;53853;51.982;5.928;2023-06-05T01:16:49;5.15;;;3.65;;
66946;SDS011;53853;51.982;5.928;2023-06-05T01:19:22;5.50;;;4.37;;
66946;SDS011;53853;51.982;5.928;2023-06-05T01:24:28;6.05;;;4.57;;
66946;SDS011;53853;51.982;5.928;2023-06-05T01:27:00;7.97;;;5.20;;
66946;SDS011;53853;51.982;5.928;2023-06-05T01:29:43;5.68;;;4.55;;
66946;SDS011;53853;51.982;5.928;2023-06-05T01:32:21;7.97;;;5.38;;
66946;SDS011;53853;51.982;5.928;2023-06-05T01:34:57;7.72;;;5.47;;
66946;SDS011;53853;51.982;5.928;2023-06-05T01:37:28;6.97;;;5.25;;
66946;SDS011;53853;51.982;5.928;2023-06-05T01:40:05;7.97;;;5.47;;
66946;SDS011;53853;51.982;5.928;2023-06-05T01:42:39;6.05;;;5.22;;
66946;SDS011;53853;51.982;5.928;2023-06-05T01:45:11;6.25;;;4.63;;
66946;SDS011;53853;51.982;5.928;2023-06-05T01:47:42;5.60;;;4.95;;
66946;SDS011;53853;51.982;5.928;2023-06-05T01:50:14;5.78;;;4.22;;
66946;SDS011;53853;51.982;5.928;2023-06-05T01:52:44;4.70;;;3.72;;
66946;SDS011;53853;51.982;5.928;2023-06-05T01:55:19;5.50;;;3.88;;
66946;SDS011;53853;51.982;5.928;2023-06-05T01:57:52;5.97;;;4.50;;
66946;SDS011;53853;51.982;5.928;2023-06-05T02:00:22;8.15;;;4.50;;
66946;SDS011;53853;51.982;5.928;2023-06-05T02:02:53;5.32;;;4.05;;
66946;SDS011;53853;51.982;5.928;2023-06-05T02:05:22;4.95;;;3.72;;
66946;SDS011;53853;51.982;5.928;2023-06-05T02:07:55;6.15;;;4.47;;
66946;SDS011;53853;51.982;5.928;2023-06-05T02:10:33;5.15;;;4.50;;
66946;SDS011;53853;51.982;5.928;2023-06-05T02:13:06;6.50;;;4.82;;
66946;SDS011;53853;51.982;5.928;2023-06-05T02:15:36;6.32;;;4.70;;
66946;SDS011;53853;51.982;5.928;2023-06-05T02:18:07;4.97;;;3.78;;
66946;SDS011;53853;51.982;5.928;2023-06-05T02:20:37;7.28;;;5.60;;
66946;SDS011;53853;51.982;5.928;2023-06-05T02:23:08;4.80;;;4.28;;
66946;SDS011;53853;51.982;5.928;2023-06-05T02:25:41;6.07;;;4.40;;
66946;SDS011;53853;51.982;5.928;2023-06-05T02:28:11;7.68;;;5.63;;
66946;SDS011;53853;51.982;5.928;2023-06-05T02:30:41;11.63;;;7.00;;
66946;SDS011;53853;51.982;5.928;2023-06-05T02:33:13;6.65;;;5.15;;
66946;SDS011;53853;51.982;5.928;2023-06-05T02:35:43;7.95;;;7.10;;
66946;SDS011;53853;51.982;5.928;2023-06-05T02:38:13;7.03;;;5.43;;
66946;SDS011;53853;51.982;5.928;2023-06-05T02:40:46;7.93;;;6.55;;
66946;SDS011;53853;51.982;5.928;2023-06-05T02:43:16;6.68;;;5.97;;
66946;SDS011;53853;51.982;5.928;2023-06-05T02:45:47;6.28;;;5.57;;
66946;SDS011;53853;51.982;5.928;2023-06-05T02:48:17;7.13;;;5.32;;
66946;SDS011;53853;51.982;5.928;2023-06-05T02:50:51;8.85;;;7.20;;
66946;SDS011;53853;51.982;5.928;2023-06-05T02:53:21;7.70;;;5.85;;
66946;SDS011;53853;51.982;5.928;2023-06-05T02:55:54;7.13;;;6.20;;
66946;SDS011;53853;51.982;5.928;2023-06-05T02:58:27;5.47;;;4.85;;
66946;SDS011;53853;51.982;5.928;2023-06-05T03:00:58;8.85;;;6.03;;
66946;SDS011;53853;51.982;5.928;2023-06-05T03:03:34;10.63;;;7.03;;
66946;SDS011;53853;51.982;5.928;2023-06-05T03:06:04;6.85;;;5.30;;
66946;SDS011;53853;51.982;5.928;2023-06-05T03:08:39;8.18;;;6.20;;
66946;SDS011;53853;51.982;5.928;2023-06-05T03:11:16;8.80;;;7.07;;
66946;SDS011;53853;51.982;5.928;2023-06-05T03:13:47;6.53;;;5.72;;
66946;SDS011;53853;51.982;5.928;2023-06-05T03:16:17;9.07;;;7.72;;
66946;SDS011;53853;51.982;5.928;2023-06-05T03:18:51;7.60;;;6.00;;
66946;SDS011;53853;51.982;5.928;2023-06-05T03:21:21;9.27;;;7.15;;
66946;SDS011;53853;51.982;5.928;2023-06-05T03:23:51;11.70;;;8.77;;
66946;SDS011;53853;51.982;5.928;2023-06-05T03:26:24;8.55;;;6.97;;
66946;SDS011;53853;51.982;5.928;2023-06-05T03:28:55;9.10;;;6.45;;
66946;SDS011;53853;51.982;5.928;2023-06-05T03:31:27;6.82;;;5.75;;
66946;SDS011;53853;51.982;5.928;2023-06-05T03:33:57;8.05;;;6.68;;
66946;SDS011;53853;51.982;5.928;2023-06-05T03:36:29;8.45;;;6.75;;
66946;SDS011;53853;51.982;5.928;2023-06-05T03:39:03;6.30;;;5.57;;
66946;SDS011;53853;51.982;5.928;2023-06-05T03:41:38;8.20;;;6.13;;
66946;SDS011;53853;51.982;5.928;2023-06-05T03:44:08;9.65;;;6.78;;
66946;SDS011;53853;51.982;5.928;2023-06-05T03:46:38;11.00;;;7.47;;
66946;SDS011;53853;51.982;5.928;2023-06-05T03:49:08;8.45;;;5.40;;
66946;SDS011;53853;51.982;5.928;2023-06-05T03:51:39;8.00;;;5.90;;
66946;SDS011;53853;51.982;5.928;2023-06-05T03:54:11;9.48;;;6.95;;
66946;SDS011;53853;51.982;5.928;2023-06-05T03:56:45;9.25;;;6.20;;
66946;SDS011;53853;51.982;5.928;2023-06-05T04:01:56;8.63;;;6.55;;
66946;SDS011;53853;51.982;5.928;2023-06-05T04:04:26;8.43;;;6.88;;
66946;SDS011;53853;51.982;5.928;2023-06-05T04:06:56;7.20;;;6.50;;
66946;SDS011;53853;51.982;5.928;2023-06-05T04:09:27;10.18;;;6.93;;
66946;SDS011;53853;51.982;5.928;2023-06-05T04:11:59;11.32;;;8.55;;
66946;SDS011;53853;51.982;5.928;2023-06-05T04:17:01;8.45;;;7.40;;
66946;SDS011;53853;51.982;5.928;2023-06-05T04:19:31;9.32;;;6.40;;
66946;SDS011;53853;51.982;5.928;2023-06-05T04:22:01;8.60;;;7.25;;
66946;SDS011;53853;51.982;5.928;2023-06-05T04:24:33;9.10;;;8.13;;
66946;SDS011;53853;51.982;5.928;2023-06-05T04:27:07;9.82;;;7.05;;
66946;SDS011;53853;51.982;5.928;2023-06-05T04:29:39;9.18;;;7.15;;
66946;SDS011;53853;51.982;5.928;2023-06-05T04:32:10;8.40;;;6.75;;
66946;SDS011;53853;51.982;5.928;2023-06-05T04:34:42;7.68;;;6.20;;
66946;SDS011;53853;51.982;5.928;2023-06-05T04:37:12;9.05;;;6.85;;
66946;SDS011;53853;51.982;5.928;2023-06-05T04:39:42;7.63;;;6.80;;
66946;SDS011;53853;51.982;5.928;2023-06-05T04:42:14;10.07;;;6.95;;
66946;SDS011;53853;51.982;5.928;2023-06-05T04:44:51;8.05;;;6.60;;
66946;SDS011;53853;51.982;5.928;2023-06-05T04:47:27;12.50;;;8.65;;
66946;SDS011;53853;51.982;5.928;2023-06-05T04:49:57;7.70;;;5.82;;
66946;SDS011;53853;51.982;5.928;2023-06-05T04:52:29;11.77;;;7.10;;
66946;SDS011;53853;51.982;5.928;2023-06-05T04:55:01;9.43;;;7.47;;
66946;SDS011;53853;51.982;5.928;2023-06-05T04:57:34;12.63;;;8.48;;
66946;SDS011;53853;51.982;5.928;2023-06-05T05:00:06;12.25;;;8.35;;
66946;SDS011;53853;51.982;5.928;2023-06-05T05:02:37;9.18;;;6.85;;
66946;SDS011;53853;51.982;5.928;2023-06-05T05:05:07;8.15;;;5.97;;
66946;SDS011;53853;51.982;5.928;2023-06-05T05:07:40;14.18;;;8.45;;
66946;SDS011;53853;51.982;5.928;2023-06-05T05:10:11;7.95;;;6.63;;
66946;SDS011;53853;51.982;5.928;2023-06-05T05:12:44;9.75;;;7.15;;
66946;SDS011;53853;51.982;5.928;2023-06-05T05:15:15;8.98;;;7.20;;
66946;SDS011;53853;51.982;5.928;2023-06-05T05:17:46;10.90;;;8.85;;
66946;SDS011;53853;51.982;5.928;2023-06-05T05:20:17;8.15;;;7.10;;
66946;SDS011;53853;51.982;5.928;2023-06-05T05:22:48;13.50;;;9.65;;
66946;SDS011;53853;51.982;5.928;2023-06-05T05:25:18;7.82;;;6.75;;
66946;SDS011;53853;51.982;5.928;2023-06-05T05:27:50;13.95;;;10.02;;
66946;SDS011;53853;51.982;5.928;2023-06-05T05:30:20;9.38;;;7.13;;
66946;SDS011;53853;51.982;5.928;2023-06-05T05:32:51;11.40;;;8.23;;
66946;SDS011;53853;51.982;5.928;2023-06-05T05:35:22;8.27;;;6.05;;
66946;SDS011;53853;51.982;5.928;2023-06-05T05:37:52;7.60;;;6.45;;
66946;SDS011;53853;51.982;5.928;2023-06-05T05:40:22;6.95;;;6.07;;
66946;SDS011;53853;51.982;5.928;2023-06-05T05:42:55;9.65;;;7.30;;
66946;SDS011;53853;51.982;5.928;2023-06-05T05:45:24;9.90;;;7.45;;
66946;SDS011;53853;51.982;5.928;2023-06-05T05:47:54;10.95;;;8.98;;
66946;SDS011;53853;51.982;5.928;2023-06-05T05:50:24;7.78;;;6.38;;
66946;SDS011;53853;51.982;5.928;2023-06-05T05:52:54;9.15;;;7.10;;
66946;SDS011;53853;51.982;5.928;2023-06-05T05:55:24;11.63;;;9.02;;
66946;SDS011;53853;51.982;5.928;2023-06-05T05:57:57;8.25;;;5.93;;
66946;SDS011;53853;51.982;5.928;2023-06-05T06:00:26;10.63;;;7.32;;
66946;SDS011;53853;51.982;5.928;2023-06-05T06:02:56;11.57;;;8.63;;
66946;SDS011;53853;51.982;5.928;2023-06-05T06:05:26;12.05;;;8.50;;
66946;SDS011;53853;51.982;5.928;2023-06-05T06:07:57;9.73;;;7.28;;
66946;SDS011;53853;51.982;5.928;2023-06-05T06:10:27;8.15;;;6.88;;
66946;SDS011;53853;51.982;5.928;2023-06-05T06:12:59;12.00;;;9.80;;
66946;SDS011;53853;51.982;5.928;2023-06-05T06:15:30;10.20;;;8.02;;
66946;SDS011;53853;51.982;5.928;2023-06-05T06:17:59;10.32;;;8.43;;
66946;SDS011;53853;51.982;5.928;2023-06-05T06:20:31;8.05;;;6.60;;
66946;SDS011;53853;51.982;5.928;2023-06-05T06:23:04;11.27;;;8.75;;
66946;SDS011;53853;51.982;5.928;2023-06-05T06:25:34;9.38;;;7.68;;
66946;SDS011;53853;51.982;5.928;2023-06-05T06:28:07;11.20;;;7.72;;
66946;SDS011;53853;51.982;5.928;2023-06-05T06:30:37;9.65;;;7.03;;
66946;SDS011;53853;51.982;5.928;2023-06-05T06:33:08;11.63;;;7.50;;
66946;SDS011;53853;51.982;5.928;2023-06-05T06:35:37;7.22;;;5.63;;
66946;SDS011;53853;51.982;5.928;2023-06-05T06:38:09;11.00;;;7.90;;
66946;SDS011;53853;51.982;5.928;2023-06-05T06:40:39;6.95;;;5.32;;
66946;SDS011;53853;51.982;5.928;2023-06-05T06:43:11;8.02;;;6.20;;
66946;SDS011;53853;51.982;5.928;2023-06-05T06:45:47;7.43;;;5.60;;
66946;SDS011;53853;51.982;5.928;2023-06-05T06:48:17;8.25;;;6.45;;
66946;SDS011;53853;51.982;5.928;2023-06-05T06:50:47;10.55;;;7.10;;
66946;SDS011;53853;51.982;5.928;2023-06-05T06:53:18;8.45;;;6.30;;
66946;SDS011;53853;51.982;5.928;2023-06-05T06:55:48;7.47;;;6.15;;
66946;SDS011;53853;51.982;5.928;2023-06-05T06:58:20;8.98;;;6.38;;
66946;SDS011;53853;51.982;5.928;2023-06-05T07:00:50;10.15;;;6.65;;
66946;SDS011;53853;51.982;5.928;2023-06-05T07:03:20;11.13;;;7.63;;
66946;SDS011;53853;51.982;5.928;2023-06-05T07:05:51;7.07;;;5.75;;
66946;SDS011;53853;51.982;5.928;2023-06-05T07:08:21;9.02;;;5.80;;
66946;SDS011;53853;51.982;5.928;2023-06-05T07:10:52;6.50;;;4.93;;
66946;SDS011;53853;51.982;5.928;2023-06-05T07:13:25;6.95;;;4.93;;
66946;SDS011;53853;51.982;5.928;2023-06-05T07:15:55;7.53;;;5.50;;
66946;SDS011;53853;51.982;5.928;2023-06-05T07:18:25;8.63;;;7.18;;
66946;SDS011;53853;51.982;5.928;2023-06-05T07:20:54;8.30;;;5.38;;
66946;SDS011;53853;51.982;5.928;2023-06-05T07:23:24;9.32;;;6.30;;
66946;SDS011;53853;51.982;5.928;2023-06-05T07:25:54;7.53;;;5.70;;
66946;SDS011;53853;51.982;5.928;2023-06-05T07:28:27;7.70;;;5.55;;
66946;SDS011;53853;51.982;5.928;2023-06-05T07:30:57;5.93;;;4.45;;
66946;SDS011;53853;51.982;5.928;2023-06-05T07:33:30;5.88;;;4.50;;
66946;SDS011;53853;51.982;5.928;2023-06-05T07:36:00;8.57;;;7.10;;
66946;SDS011;53853;51.982;5.928;2023-06-05T07:38:30;6.93;;;5.20;;
66946;SDS011;53853;51.982;5.928;2023-06-05T07:40:59;6.45;;;5.25;;
66946;SDS011;53853;51.982;5.928;2023-06-05T07:43:32;8.43;;;6.18;;
66946;SDS011;53853;51.982;5.928;2023-06-05T07:46:02;8.88;;;5.65;;
66946;SDS011;53853;51.982;5.928;2023-06-05T07:48:35;11.95;;;7.25;;
66946;SDS011;53853;51.982;5.928;2023-06-05T07:51:04;7.72;;;4.22;;
66946;SDS011;53853;51.982;5.928;2023-06-05T07:53:34;6.50;;;4.43;;
66946;SDS011;53853;51.982;5.928;2023-06-05T07:56:05;6.57;;;4.30;;
66946;SDS011;53853;51.982;5.928;2023-06-05T07:58:37;7.00;;;4.88;;
66946;SDS011;53853;51.982;5.928;2023-06-05T08:01:08;7.57;;;6.20;;
66946;SDS011;53853;51.982;5.928;2023-06-05T08:03:38;7.97;;;4.82;;
66946;SDS011;53853;51.982;5.928;2023-06-05T08:06:09;6.80;;;5.10;;
66946;SDS011;53853;51.982;5.928;2023-06-05T08:08:39;8.50;;;5.07;;
66946;SDS011;53853;51.982;5.928;2023-06-05T08:11:09;6.13;;;5.25;;
66946;SDS011;53853;51.982;5.928;2023-06-05T08:13:42;9.60;;;5.88;;
66946;SDS011;53853;51.982;5.928;2023-06-05T08:16:12;9.38;;;5.72;;
66946;SDS011;53853;51.982;5.928;2023-06-05T08:18:42;8.43;;;5.78;;
66946;SDS011;53853;51.982;5.928;2023-06-05T08:21:12;8.52;;;6.07;;
66946;SDS011;53853;51.982;5.928;2023-06-05T08:23:42;7.72;;;5.15;;
66946;SDS011;53853;51.982;5.928;2023-06-05T08:26:12;8.88;;;5.68;;
66946;SDS011;53853;51.982;5.928;2023-06-05T08:28:45;9.75;;;6.43;;
66946;SDS011;53853;51.982;5.928;2023-06-05T08:31:14;10.23;;;5.53;;
66946;SDS011;53853;51.982;5.928;2023-06-05T08:33:44;12.27;;;6.82;;
66946;SDS011;53853;51.982;5.928;2023-06-05T08:36:14;11.15;;;7.10;;
66946;SDS011;53853;51.982;5.928;2023-06-05T08:38:44;7.85;;;5.30;;
66946;SDS011;53853;51.982;5.928;2023-06-05T08:41:14;9.65;;;6.90;;
66946;SDS011;53853;51.982;5.928;2023-06-05T08:43:47;5.35;;;4.63;;
66946;SDS011;53853;51.982;5.928;2023-06-05T08:46:17;8.90;;;5.00;;
66946;SDS011;53853;51.982;5.928;2023-06-05T08:48:48;5.93;;;5.30;;
66946;SDS011;53853;51.982;5.928;2023-06-05T08:51:19;9.82;;;6.07;;
66946;SDS011;53853;51.982;5.928;2023-06-05T08:53:50;9.13;;;6.38;;
66946;SDS011;53853;51.982;5.928;2023-06-05T08:56:25;10.32;;;6.95;;
66946;SDS011;53853;51.982;5.928;2023-06-05T08:59:00;9.02;;;6.63;;
66946;SDS011;53853;51.982;5.928;2023-06-05T09:01:30;8.43;;;5.28;;
66946;SDS011;53853;51.982;5.928;2023-06-05T09:04:01;9.05;;;5.80;;
66946;SDS011;53853;51.982;5.928;2023-06-05T09:06:31;9.80;;;5.45;;
66946;SDS011;53853;51.982;5.928;2023-06-05T09:09:02;6.20;;;5.57;;
66946;SDS011;53853;51.982;5.928;2023-06-05T09:11:32;8.90;;;4.72;;
66946;SDS011;53853;51.982;5.928;2023-06-05T09:14:05;6.32;;;4.15;;
66946;SDS011;53853;51.982;5.928;2023-06-05T09:16:35;6.82;;;4.82;;
66946;SDS011;53853;51.982;5.928;2023-06-05T09:19:08;12.10;;;5.75;;
66946;SDS011;53853;51.982;5.928;2023-06-05T09:21:38;8.90;;;5.72;;
66946;SDS011;53853;51.982;5.928;2023-06-05T09:24:15;11.32;;;6.25;;
66946;SDS011;53853;51.982;5.928;2023-06-05T09:26:48;5.38;;;3.90;;
66946;SDS011;53853;51.982;5.928;2023-06-05T09:29:28;9.00;;;6.45;;
66946;SDS011;53853;51.982;5.928;2023-06-05T09:32:00;7.68;;;6.00;;
66946;SDS011;53853;51.982;5.928;2023-06-05T09:34:31;6.00;;;5.13;;
66946;SDS011;53853;51.982;5.928;2023-06-05T09:37:02;11.13;;;5.00;;
66946;SDS011;53853;51.982;5.928;2023-06-05T09:39:34;7.75;;;5.38;;
66946;SDS011;53853;51.982;5.928;2023-06-05T09:42:05;9.13;;;5.07;;
66946;SDS011;53853;51.982;5.928;2023-06-05T09:44:38;8.73;;;5.13;;
66946;SDS011;53853;51.982;5.928;2023-06-05T09:47:08;7.53;;;4.78;;
66946;SDS011;53853;51.982;5.928;2023-06-05T09:49:46;6.13;;;4.57;;
66946;SDS011;53853;51.982;5.928;2023-06-05T09:52:16;5.15;;;3.80;;
66946;SDS011;53853;51.982;5.928;2023-06-05T09:54:47;7.80;;;5.35;;
66946;SDS011;53853;51.982;5.928;2023-06-05T09:57:17;12.45;;;6.57;;
66946;SDS011;53853;51.982;5.928;2023-06-05T09:59:51;8.65;;;5.63;;
66946;SDS011;53853;51.982;5.928;2023-06-05T10:02:23;10.00;;;5.95;;
66946;SDS011;53853;51.982;5.928;2023-06-05T10:07:29;6.72;;;5.75;;
66946;SDS011;53853;51.982;5.928;2023-06-05T10:10:01;9.20;;;5.63;;
66946;SDS011;53853;51.982;5.928;2023-06-05T10:12:31;8.38;;;5.70;;
66946;SDS011;53853;51.982;5.928;2023-06-05T10:15:05;6.45;;;5.18;;
66946;SDS011;53853;51.982;5.928;2023-06-05T10:17:36;8.10;;;4.60;;
66946;SDS011;53853;51.982;5.928;2023-06-05T10:20:08;7.18;;;5.32;;
66946;SDS011;53853;51.982;5.928;2023-06-05T10:22:39;6.25;;;3.97;;
66946;SDS011;53853;51.982;5.928;2023-06-05T10:25:11;6.70;;;5.97;;
66946;SDS011;53853;51.982;5.928;2023-06-05T10:27:55;11.82;;;7.13;;
66946;SDS011;53853;51.982;5.928;2023-06-05T10:33:46;10.60;;;5.20;;
66946;SDS011;53853;51.982;5.928;2023-06-05T10:36:28;7.75;;;4.88;;
66946;SDS011;53853;51.982;5.928;2023-06-05T10:39:13;6.93;;;4.78;;
66946;SDS011;53853;51.982;5.928;2023-06-05T10:41:44;9.80;;;6.30;;
66946;SDS011;53853;51.982;5.928;2023-06-05T10:44:18;8.20;;;5.68;;
66946;SDS011;53853;51.982;5.928;2023-06-05T10:50:24;6.88;;;4.75;;
66946;SDS011;53853;51.982;5.928;2023-06-05T10:52:57;6.25;;;4.28;;
66946;SDS011;53853;51.982;5.928;2023-06-05T10:55:27;7.85;;;5.45;;
66946;SDS011;53853;51.982;5.928;2023-06-05T11:06:32;7.22;;;4.80;;
66946;SDS011;53853;51.982;5.928;2023-06-05T11:09:10;9.75;;;5.22;;
66946;SDS011;53853;51.982;5.928;2023-06-05T11:19:58;4.95;;;3.47;;
66946;SDS011;53853;51.982;5.928;2023-06-05T11:22:33;6.57;;;4.47;;
66946;SDS011;53853;51.982;5.928;2023-06-05T11:25:24;10.88;;;4.90;;
66946;SDS011;53853;51.982;5.928;2023-06-05T11:27:56;7.10;;;5.20;;
66946;SDS011;53853;51.982;5.928;2023-06-05T11:30:28;5.75;;;4.55;;
66946;SDS011;53853;51.982;5.928;2023-06-05T11:33:05;6.82;;;4.10;;
66946;SDS011;53853;51.982;5.928;2023-06-05T11:35:38;6.40;;;3.92;;
66946;SDS011;53853;51.982;5.928;2023-06-05T11:38:13;6.25;;;4.00;;
66946;SDS011;53853;51.982;5.928;2023-06-05T11:40:44;5.32;;;3.97;;
66946;SDS011;53853;51.982;5.928;2023-06-05T11:43:14;9.00;;;4.00;;
66946;SDS011;53853;51.982;5.928;2023-06-05T11:45:48;4.88;;;3.20;;
66946;SDS011;53853;51.982;5.928;2023-06-05T11:48:19;7.43;;;4.45;;
66946;SDS011;53853;51.982;5.928;2023-06-05T11:50:52;8.43;;;4.03;;
66946;SDS011;53853;51.982;5.928;2023-06-05T11:53:28;7.10;;;3.78;;
66946;SDS011;53853;51.982;5.928;2023-06-05T11:55:59;5.28;;;3.13;;
66946;SDS011;53853;51.982;5.928;2023-06-05T11:58:36;7.80;;;3.70;;
66946;SDS011;53853;51.982;5.928;2023-06-05T12:01:07;5.90;;;3.60;;
66946;SDS011;53853;51.982;5.928;2023-06-05T12:03:40;4.95;;;3.05;;
66946;SDS011;53853;51.982;5.928;2023-06-05T12:06:11;6.72;;;3.47;;
66946;SDS011;53853;51.982;5.928;2023-06-05T12:08:44;5.38;;;3.92;;
66946;SDS011;53853;51.982;5.928;2023-06-05T12:11:21;7.53;;;4.82;;
66946;SDS011;53853;51.982;5.928;2023-06-05T12:13:53;6.65;;;4.22;;
66946;SDS011;53853;51.982;5.928;2023-06-05T12:16:30;5.25;;;4.13;;
66946;SDS011;53853;51.982;5.928;2023-06-05T12:19:00;4.95;;;3.67;;
66946;SDS011;53853;51.982;5.928;2023-06-05T12:21:31;5.13;;;3.28;;
66946;SDS011;53853;51.982;5.928;2023-06-05T12:24:04;5.05;;;3.53;;
66946;SDS011;53853;51.982;5.928;2023-06-05T12:26:48;5.05;;;3.72;;
66946;SDS011;53853;51.982;5.928;2023-06-05T12:29:19;6.32;;;2.92;;
66946;SDS011;53853;51.982;5.928;2023-06-05T12:31:51;6.82;;;3.90;;
66946;SDS011;53853;51.982;5.928;2023-06-05T12:37:22;4.15;;;2.83;;
66946;SDS011;53853;51.982;5.928;2023-06-05T12:39:58;4.63;;;3.50;;
66946;SDS011;53853;51.982;5.928;2023-06-05T12:42:34;8.15;;;3.72;;
66946;SDS011;53853;51.982;5.928;2023-06-05T12:45:06;6.18;;;3.80;;
66946;SDS011;53853;51.982;5.928;2023-06-05T12:47:38;6.00;;;3.38;;
66946;SDS011;53853;51.982;5.928;2023-06-05T12:50:10;6.63;;;2.90;;
66946;SDS011;53853;51.982;5.928;2023-06-05T12:52:41;5.95;;;3.58;;
66946;SDS011;53853;51.982;5.928;2023-06-05T12:55:14;6.95;;;3.65;;
66946;SDS011;53853;51.982;5.928;2023-06-05T12:57:44;6.10;;;3.10;;
66946;SDS011;53853;51.982;5.928;2023-06-05T13:00:15;5.60;;;3.95;;
66946;SDS011;53853;51.982;5.928;2023-06-05T13:02:45;4.70;;;3.25;;
66946;SDS011;53853;51.982;5.928;2023-06-05T13:05:15;5.28;;;3.45;;
66946;SDS011;53853;51.982;5.928;2023-06-05T13:07:45;6.25;;;3.45;;
66946;SDS011;53853;51.982;5.928;2023-06-05T13:10:19;7.00;;;3.35;;
66946;SDS011;53853;51.982;5.928;2023-06-05T13:12:49;6.07;;;3.22;;
66946;SDS011;53853;51.982;5.928;2023-06-05T13:15:19;6.20;;;3.40;;
66946;SDS011;53853;51.982;5.928;2023-06-05T13:17:49;3.75;;;2.97;;
66946;SDS011;53853;51.982;5.928;2023-06-05T13:20:19;5.90;;;3.35;;
66946;SDS011;53853;51.982;5.928;2023-06-05T13:22:49;4.05;;;3.00;;
66946;SDS011;53853;51.982;5.928;2023-06-05T13:25:21;4.57;;;2.65;;
66946;SDS011;53853;51.982;5.928;2023-06-05T13:27:51;8.10;;;2.92;;
66946;SDS011;53853;51.982;5.928;2023-06-05T13:30:21;7.15;;;4.15;;
66946;SDS011;53853;51.982;5.928;2023-06-05T13:32:51;7.20;;;3.55;;
66946;SDS011;53853;51.982;5.928;2023-06-05T13:35:21;5.80;;;3.30;;
66946;SDS011;53853;51.982;5.928;2023-06-05T13:37:50;5.82;;;3.10;;
66946;SDS011;53853;51.982;5.928;2023-06-05T13:40:23;5.63;;;4.13;;
66946;SDS011;53853;51.982;5.928;2023-06-05T13:42:54;4.80;;;3.80;;
66946;SDS011;53853;51.982;5.928;2023-06-05T13:45:24;8.52;;;3.38;;
66946;SDS011;53853;51.982;5.928;2023-06-05T13:47:54;6.05;;;3.22;;
66946;SDS011;53853;51.982;5.928;2023-06-05T13:50:24;6.68;;;3.97;;
66946;SDS011;53853;51.982;5.928;2023-06-05T13:52:53;4.60;;;3.50;;
66946;SDS011;53853;51.982;5.928;2023-06-05T13:55:26;4.10;;;2.75;;
66946;SDS011;53853;51.982;5.928;2023-06-05T13:57:56;4.00;;;2.70;;
66946;SDS011;53853;51.982;5.928;2023-06-05T14:00:27;5.63;;;3.42;;
66946;SDS011;53853;51.982;5.928;2023-06-05T14:02:58;4.53;;;3.15;;
66946;SDS011;53853;51.982;5.928;2023-06-05T14:05:28;3.72;;;2.63;;
66946;SDS011;53853;51.982;5.928;2023-06-05T14:07:58;4.35;;;3.40;;
66946;SDS011;53853;51.982;5.928;2023-06-05T14:10:31;4.80;;;2.90;;
66946;SDS011;53853;51.982;5.928;2023-06-05T14:13:02;5.38;;;3.20;;
66946;SDS011;53853;51.982;5.928;2023-06-05T14:15:32;8.30;;;4.53;;
66946;SDS011;53853;51.982;5.928;2023-06-05T14:18:03;4.88;;;3.53;;
66946;SDS011;53853;51.982;5.928;2023-06-05T14:20:35;4.85;;;3.40;;
66946;SDS011;53853;51.982;5.928;2023-06-05T14:23:04;5.13;;;2.50;;
66946;SDS011;53853;51.982;5.928;2023-06-05T14:25:38;4.50;;;2.88;;
66946;SDS011;53853;51.982;5.928;2023-06-05T14:28:08;6.10;;;3.45;;
66946;SDS011;53853;51.982;5.928;2023-06-05T14:30:39;7.55;;;4.20;;
66946;SDS011;53853;51.982;5.928;2023-06-05T14:33:09;5.43;;;3.08;;
66946;SDS011;53853;51.982;5.928;2023-06-05T14:35:39;4.15;;;2.47;;
66946;SDS011;53853;51.982;5.928;2023-06-05T14:38:09;5.65;;;3.03;;
66946;SDS011;53853;51.982;5.928;2023-06-05T14:40:42;4.70;;;3.33;;
66946;SDS011;53853;51.982;5.928;2023-06-05T14:43:16;4.97;;;3.08;;
66946;SDS011;53853;51.982;5.928;2023-06-05T14:45:45;4.35;;;2.78;;
66946;SDS011;53853;51.982;5.928;2023-06-05T14:48:15;5.65;;;3.30;;
66946;SDS011;53853;51.982;5.928;2023-06-05T14:50:45;3.97;;;2.40;;
66946;SDS011;53853;51.982;5.928;2023-06-05T14:53:15;4.22;;;2.35;;
66946;SDS011;53853;51.982;5.928;2023-06-05T14:55:47;3.58;;;2.40;;
66946;SDS011;53853;51.982;5.928;2023-06-05T14:58:17;3.53;;;2.45;;
66946;SDS011;53853;51.982;5.928;2023-06-05T15:00:47;5.45;;;2.60;;
66946;SDS011;53853;51.982;5.928;2023-06-05T15:03:17;4.35;;;2.65;;
66946;SDS011;53853;51.982;5.928;2023-06-05T15:05:47;4.53;;;2.22;;
66946;SDS011;53853;51.982;5.928;2023-06-05T15:08:18;5.28;;;2.78;;
66946;SDS011;53853;51.982;5.928;2023-06-05T15:10:51;4.22;;;2.60;;
66946;SDS011;53853;51.982;5.928;2023-06-05T15:13:21;2.92;;;2.10;;
66946;SDS011;53853;51.982;5.928;2023-06-05T15:15:51;4.75;;;2.92;;
66946;SDS011;53853;51.982;5.928;2023-06-05T15:18:24;3.77;;;2.70;;
66946;SDS011;53853;51.982;5.928;2023-06-05T15:20:54;5.43;;;3.20;;
66946;SDS011;53853;51.982;5.928;2023-06-05T15:23:23;4.82;;;2.70;;
66946;SDS011;53853;51.982;5.928;2023-06-05T15:25:56;6.45;;;4.32;;
66946;SDS011;53853;51.982;5.928;2023-06-05T15:28:26;5.13;;;3.10;;
66946;SDS011;53853;51.982;5.928;2023-06-05T15:30:55;4.07;;;3.10;;
66946;SDS011;53853;51.982;5.928;2023-06-05T15:33:25;7.75;;;3.85;;
66946;SDS011;53853;51.982;5.928;2023-06-05T15:35:55;4.10;;;2.85;;
66946;SDS011;53853;51.982;5.928;2023-06-05T15:38:25;3.97;;;2.67;;
66946;SDS011;53853;51.982;5.928;2023-06-05T15:40:57;5.28;;;2.67;;
66946;SDS011;53853;51.982;5.928;2023-06-05T15:43:27;4.32;;;2.60;;
66946;SDS011;53853;51.982;5.928;2023-06-05T15:45:57;4.82;;;2.85;;
66946;SDS011;53853;51.982;5.928;2023-06-05T15:48:27;5.18;;;4.00;;